Time;durP1;ratioP1;P1;durP2;ratioP2;P2;SDS_P1;SDS_P2;PMS_P1;PMS_P2;Temp;Humidity;BMP_temperature;BMP_pressure;BME280_temperature;BME280_humidity;BME280_pressure;Samples;Min_cycle;Max_cycle;Signal;HPM_P1;HPM_P2
2023/07/14 00:00:22;;;;;;;1.50;0.90;;;18.80;97.00;;;;;;4938236;28;20460;-82
2023/07/14 00:02:53;;;;;;;1.50;1.00;;;18.90;97.20;;;;;;4932452;28;20468;-83
2023/07/14 00:05:28;;;;;;;1.50;1.00;;;18.90;97.10;;;;;;4934409;28;20507;-80
2023/07/14 00:11:04;;;;;;;1.43;0.90;;;18.90;96.60;;;;;;4992915;27;3827059;-82
2023/07/14 00:13:31;;;;;;;1.50;1.00;;;18.90;96.90;;;;;;5112789;28;20202;-82
2023/07/14 00:16:01;;;;;;;1.47;1.00;;;19.00;96.30;;;;;;5113918;27;20479;-83
2023/07/14 00:18:31;;;;;;;1.50;1.00;;;19.00;96.60;;;;;;5119008;27;20853;-83
2023/07/14 00:21:01;;;;;;;1.50;0.90;;;19.00;96.90;;;;;;5098550;27;21147;-84
2023/07/14 00:23:36;;;;;;;1.40;0.90;;;18.90;97.00;;;;;;5116879;27;20509;-80
2023/07/14 00:26:06;;;;;;;1.50;1.00;;;18.90;97.50;;;;;;5122296;27;20476;-83
2023/07/14 00:28:33;;;;;;;1.50;0.90;;;18.80;97.30;;;;;;5117585;27;20485;-82
2023/07/14 00:31:03;;;;;;;1.50;1.00;;;18.80;97.40;;;;;;5101193;27;20477;-83
2023/07/14 00:33:30;;;;;;;1.47;0.90;;;18.80;97.00;;;;;;5119124;27;20546;-82
2023/07/14 00:35:58;;;;;;;1.43;0.90;;;18.70;97.50;;;;;;5098413;27;20519;-81
2023/07/14 00:38:25;;;;;;;1.50;1.00;;;18.70;97.20;;;;;;5117616;27;20456;-83
2023/07/14 00:40:54;;;;;;;1.50;1.00;;;18.70;97.10;;;;;;5116269;27;20451;-83
2023/07/14 00:46:30;;;;;;;1.50;0.90;;;18.70;97.10;;;;;;5047032;27;1847945;-79
2023/07/14 00:49:01;;;;;;;1.47;0.90;;;18.70;97.00;;;;;;5068937;28;20600;-80
2023/07/14 00:51:36;;;;;;;1.50;1.30;;;18.70;97.40;;;;;;5104235;28;20461;-80
2023/07/14 00:54:05;;;;;;;1.50;0.90;;;18.70;97.60;;;;;;5070227;28;20460;-80
2023/07/14 00:56:42;;;;;;;1.60;1.30;;;18.70;97.50;;;;;;5091623;28;20487;-80
2023/07/14 00:59:17;;;;;;;1.43;0.90;;;18.60;97.50;;;;;;5109610;28;20494;-79
2023/07/14 01:02:22;;;;;;;1.40;0.90;;;18.60;97.20;;;;;;5092489;28;20459;-80
2023/07/14 01:04:53;;;;;;;1.50;1.00;;;18.60;97.20;;;;;;5107461;28;20518;-81
2023/07/14 01:07:27;;;;;;;1.50;0.90;;;18.50;97.20;;;;;;5098216;28;20495;-78
2023/07/14 01:10:03;;;;;;;1.47;0.90;;;18.50;97.20;;;;;;5105471;28;20814;-80
2023/07/14 01:12:35;;;;;;;1.50;0.90;;;18.50;97.20;;;;;;5105899;28;20496;-79
2023/07/14 01:15:08;;;;;;;1.50;0.90;;;18.50;98.10;;;;;;5106303;28;20535;-80
2023/07/14 01:17:41;;;;;;;1.50;1.00;;;18.50;97.50;;;;;;5105361;28;20471;-79
2023/07/14 01:20:21;;;;;;;1.50;1.07;;;18.60;97.20;;;;;;5087528;28;20517;-79
2023/07/14 01:23:03;;;;;;;1.50;1.00;;;18.60;97.20;;;;;;5083104;28;20538;-79
2023/07/14 01:25:46;;;;;;;1.47;0.93;;;18.50;97.90;;;;;;5104081;28;20492;-79
2023/07/14 01:28:17;;;;;;;1.50;0.90;;;18.50;98.00;;;;;;5087910;28;20521;-79
2023/07/14 01:30:48;;;;;;;1.50;0.90;;;18.50;98.10;;;;;;5106622;28;20548;-80
2023/07/14 01:33:18;;;;;;;1.50;0.90;;;18.50;98.20;;;;;;5105485;28;20456;-80
2023/07/14 01:35:48;;;;;;;1.50;1.00;;;18.40;98.20;;;;;;5102051;28;20494;-79
2023/07/14 01:38:17;;;;;;;1.50;1.00;;;18.40;98.20;;;;;;5099385;28;20470;-79
2023/07/14 01:40:49;;;;;;;1.50;0.90;;;18.50;98.20;;;;;;5084562;28;20467;-78
2023/07/14 01:43:19;;;;;;;1.47;0.90;;;18.50;98.20;;;;;;5106290;28;20833;-78
2023/07/14 01:45:51;;;;;;;1.50;0.93;;;18.50;98.00;;;;;;5102385;28;20487;-78
2023/07/14 01:48:24;;;;;;;1.50;0.90;;;18.50;98.20;;;;;;5105484;28;20976;-79
2023/07/14 01:50:57;;;;;;;1.50;0.90;;;18.60;98.10;;;;;;5092624;28;20977;-85
2023/07/14 01:53:29;;;;;;;1.50;0.90;;;18.60;98.20;;;;;;5070488;28;20457;-82
2023/07/14 01:56:00;;;;;;;1.50;0.90;;;18.60;98.20;;;;;;5110953;28;20464;-81
2023/07/14 01:58:56;;;;;;;1.40;0.90;;;18.60;98.20;;;;;;5082559;28;20454;-83
2023/07/14 02:01:27;;;;;;;1.50;0.90;;;18.60;98.20;;;;;;5076835;28;20458;-82
2023/07/14 02:03:57;;;;;;;1.50;0.97;;;18.60;98.20;;;;;;5066589;28;20464;-83
2023/07/14 02:06:26;;;;;;;1.50;0.90;;;18.60;97.80;;;;;;5079299;28;20499;-83
2023/07/14 02:08:54;;;;;;;1.47;0.90;;;18.60;98.10;;;;;;5095614;28;20460;-82
2023/07/14 02:11:26;;;;;;;1.50;0.90;;;18.60;98.20;;;;;;5076798;28;20539;-81
2023/07/14 02:14:02;;;;;;;1.50;0.90;;;18.60;97.70;;;;;;5100164;28;20873;-84
2023/07/14 02:16:31;;;;;;;1.50;0.93;;;18.60;98.10;;;;;;5097749;28;20648;-83
2023/07/14 02:19:03;;;;;;;1.50;1.00;;;18.50;97.90;;;;;;5098487;28;20464;-82
2023/07/14 02:21:32;;;;;;;1.47;0.90;;;18.50;98.20;;;;;;5080920;28;20816;-83
2023/07/14 02:24:04;;;;;;;1.47;0.90;;;18.50;98.20;;;;;;5068263;28;20692;-84
2023/07/14 02:26:39;;;;;;;1.43;0.90;;;18.40;98.20;;;;;;5095218;28;20641;-85
2023/07/14 02:29:15;;;;;;;1.50;0.90;;;18.40;98.20;;;;;;5075821;28;20486;-82
2023/07/14 02:34:36;;;;;;;1.50;0.90;;;18.40;98.20;;;;;;5097344;28;20460;-83
2023/07/14 02:37:07;;;;;;;1.50;0.90;;;18.30;98.20;;;;;;5092208;28;20486;-82
2023/07/14 02:39:38;;;;;;;1.50;0.90;;;18.30;98.20;;;;;;5095705;28;20507;-84
2023/07/14 02:42:07;;;;;;;1.47;0.90;;;18.30;98.20;;;;;;5097041;28;20749;-84
2023/07/14 02:44:39;;;;;;;1.50;1.00;;;18.20;98.20;;;;;;5079206;28;20465;-83
2023/07/14 02:47:14;;;;;;;1.50;0.93;;;18.20;98.20;;;;;;5077875;28;20521;-81
2023/07/14 02:49:48;;;;;;;1.50;0.97;;;18.20;98.20;;;;;;5092149;28;20464;-83
2023/07/14 02:52:16;;;;;;;1.50;1.00;;;18.20;98.20;;;;;;5080543;28;20503;-83
2023/07/14 02:54:44;;;;;;;1.50;0.90;;;18.10;98.20;;;;;;5098679;28;20471;-84
2023/07/14 02:57:13;;;;;;;1.50;0.90;;;18.10;98.20;;;;;;5079736;28;20491;-79
2023/07/14 02:59:45;;;;;;;1.50;1.00;;;18.10;98.20;;;;;;5098452;28;20471;-82
2023/07/14 03:02:13;;;;;;;1.50;1.00;;;18.00;98.20;;;;;;5099338;28;20453;-81
2023/07/14 03:04:47;;;;;;;1.47;0.90;;;18.00;98.20;;;;;;5060859;28;20481;-83
2023/07/14 03:07:15;;;;;;;1.47;0.90;;;18.00;98.20;;;;;;5096443;28;20477;-84
2023/07/14 03:09:45;;;;;;;1.50;0.90;;;17.90;98.20;;;;;;5057515;28;20524;-80
2023/07/14 03:12:13;;;;;;;1.50;1.00;;;17.90;98.20;;;;;;5081713;28;20460;-82
2023/07/14 03:14:46;;;;;;;1.50;1.17;;;17.90;98.20;;;;;;5077155;28;21166;-80
2023/07/14 03:17:13;;;;;;;1.50;1.10;;;17.90;98.20;;;;;;5097239;28;20469;-81
2023/07/14 03:19:40;;;;;;;1.47;0.90;;;17.80;98.20;;;;;;5079285;28;20468;-81
2023/07/14 03:22:07;;;;;;;1.50;1.10;;;17.80;98.20;;;;;;5081589;28;20834;-82
2023/07/14 03:24:43;;;;;;;1.50;0.90;;;17.80;98.20;;;;;;5079723;28;20461;-82
2023/07/14 03:27:14;;;;;;;1.50;0.97;;;17.80;98.20;;;;;;5098307;28;20476;-86
2023/07/14 03:29:48;;;;;;;1.47;0.90;;;17.80;98.20;;;;;;5076121;28;21039;-85
2023/07/14 03:32:17;;;;;;;1.50;1.00;;;17.80;98.20;;;;;;5097722;28;20515;-83
2023/07/14 03:34:46;;;;;;;1.50;1.00;;;17.80;98.20;;;;;;5099179;28;20463;-83
2023/07/14 03:37:17;;;;;;;1.50;0.90;;;17.70;98.20;;;;;;5091629;28;20473;-85
2023/07/14 03:39:45;;;;;;;1.50;1.10;;;17.70;98.20;;;;;;5095370;28;20459;-84
2023/07/14 03:42:14;;;;;;;1.50;1.00;;;17.70;98.20;;;;;;5096796;28;20460;-83
2023/07/14 03:44:40;;;;;;;1.50;1.00;;;17.70;98.20;;;;;;5093968;28;20465;-82
2023/07/14 03:49:51;;;;;;;1.47;1.00;;;17.60;98.20;;;;;;5097796;28;20600;-82
2023/07/14 03:52:21;;;;;;;1.50;1.00;;;17.50;98.20;;;;;;5082972;28;20465;-82
2023/07/14 03:54:48;;;;;;;1.50;1.00;;;17.50;98.20;;;;;;5083697;28;20472;-82
2023/07/14 03:57:15;;;;;;;1.50;1.10;;;17.50;98.20;;;;;;5081957;28;20489;-85
2023/07/14 03:59:44;;;;;;;1.50;1.00;;;17.50;98.20;;;;;;5097990;28;20460;-85
2023/07/14 04:02:13;;;;;;;1.50;1.10;;;17.50;98.20;;;;;;5097308;28;20468;-81
2023/07/14 04:04:40;;;;;;;1.50;1.00;;;17.50;98.20;;;;;;5097169;28;21013;-83
2023/07/14 04:07:07;;;;;;;1.50;0.93;;;17.60;98.20;;;;;;5081346;28;20497;-82
2023/07/14 04:09:36;;;;;;;1.50;1.00;;;17.60;98.20;;;;;;5097021;28;20571;-82
2023/07/14 04:12:05;;;;;;;1.60;1.30;;;17.60;98.20;;;;;;5063859;28;20459;-84
2023/07/14 04:14:32;;;;;;;1.50;1.00;;;17.60;98.20;;;;;;5082311;28;20456;-84
2023/07/14 04:16:59;;;;;;;1.47;0.97;;;17.60;98.20;;;;;;5097401;28;20480;-83
2023/07/14 04:19:27;;;;;;;1.50;0.90;;;17.50;98.20;;;;;;5098142;28;20471;-83
2023/07/14 04:22:01;;;;;;;1.50;1.00;;;17.50;98.20;;;;;;5082761;28;20449;-84
2023/07/14 04:24:29;;;;;;;1.50;1.00;;;17.50;98.20;;;;;;5099342;28;20464;-84
2023/07/14 04:26:55;;;;;;;1.50;1.00;;;17.50;98.20;;;;;;5099078;28;20480;-83
2023/07/14 04:29:24;;;;;;;1.50;0.90;;;17.50;98.20;;;;;;5078030;28;20484;-83
2023/07/14 04:36:58;;;;;;;1.50;0.90;;;17.50;98.20;;;;;;4979147;28;20557;-79
2023/07/14 04:39:26;;;;;;;1.50;1.00;;;17.50;98.20;;;;;;4992731;28;20461;-82
2023/07/14 04:41:54;;;;;;;1.50;1.00;;;17.50;98.20;;;;;;4989893;28;20465;-80
2023/07/14 04:44:21;;;;;;;1.50;1.00;;;17.50;98.20;;;;;;4995423;28;20484;-81
2023/07/14 04:46:48;;;;;;;1.50;1.10;;;17.50;98.20;;;;;;4989894;28;20620;-81
2023/07/14 04:49:16;;;;;;;1.50;0.90;;;17.50;98.20;;;;;;4992594;28;20464;-82
2023/07/14 04:51:43;;;;;;;1.50;0.90;;;17.60;98.20;;;;;;4989375;28;20860;-85
2023/07/14 04:54:11;;;;;;;1.50;1.00;;;17.50;98.20;;;;;;4994315;28;20506;-82
2023/07/14 04:56:39;;;;;;;1.43;0.90;;;17.50;98.20;;;;;;4982353;28;20493;-84
2023/07/14 04:59:07;;;;;;;1.50;0.90;;;17.60;98.20;;;;;;4975013;28;20461;-80
2023/07/14 05:01:35;;;;;;;1.50;0.90;;;17.60;98.20;;;;;;4974958;28;20461;-79
2023/07/14 05:06:30;;;;;;;1.50;1.00;;;17.90;98.20;;;;;;5048168;27;21021;-81
2023/07/14 05:08:57;;;;;;;1.50;0.93;;;18.10;98.20;;;;;;5041805;28;20503;-78
2023/07/14 05:11:25;;;;;;;1.50;0.90;;;18.20;98.20;;;;;;5039928;28;20838;-78
2023/07/14 05:13:53;;;;;;;1.50;1.10;;;18.40;98.20;;;;;;5032749;28;20478;-77
2023/07/14 05:16:21;;;;;;;1.50;0.90;;;18.50;98.20;;;;;;5032032;28;21190;-79
2023/07/14 05:18:48;;;;;;;1.43;0.90;;;18.50;98.20;;;;;;5035857;28;20476;-79
2023/07/14 05:21:18;;;;;;;1.50;0.90;;;18.60;98.20;;;;;;5051555;28;20462;-81
2023/07/14 05:23:46;;;;;;;1.50;1.00;;;18.60;98.20;;;;;;5050857;28;20481;-79
2023/07/14 05:26:13;;;;;;;1.50;0.90;;;18.60;98.20;;;;;;5046974;28;20494;-80
2023/07/14 05:28:40;;;;;;;1.50;0.90;;;18.60;98.20;;;;;;5048089;28;21016;-80
2023/07/14 05:31:09;;;;;;;1.50;1.00;;;18.70;98.20;;;;;;5052801;28;20849;-78
2023/07/14 05:33:36;;;;;;;1.50;1.07;;;18.70;98.20;;;;;;5053403;28;20463;-79
2023/07/14 05:36:07;;;;;;;1.50;1.00;;;18.80;98.20;;;;;;5053799;28;21020;-80
2023/07/14 05:38:34;;;;;;;1.47;0.90;;;18.80;98.20;;;;;;5053823;28;20460;-80
2023/07/14 05:41:04;;;;;;;1.50;1.20;;;18.80;98.20;;;;;;5056982;28;20559;-80
2023/07/14 05:43:31;;;;;;;1.50;0.90;;;18.90;97.80;;;;;;5061959;28;20465;-82
2023/07/14 05:46:01;;;;;;;1.50;1.00;;;18.90;98.20;;;;;;5058386;28;20494;-81
2023/07/14 05:48:28;;;;;;;1.47;0.90;;;18.90;98.20;;;;;;5053665;28;21006;-80
2023/07/14 05:50:56;;;;;;;1.47;0.90;;;19.00;98.20;;;;;;5048506;28;20923;-81
2023/07/14 05:55:53;;;;;;;1.40;0.90;;;19.20;98.20;;;;;;4983296;23;20521;-82
2023/07/14 05:58:23;;;;;;;1.50;1.00;;;19.40;97.80;;;;;;4975930;28;20472;-78
2023/07/14 06:01:04;;;;;;;1.43;0.90;;;19.60;98.20;;;;;;4977595;28;20480;-78
2023/07/14 06:06:07;;;;;;;1.50;0.90;;;20.10;97.80;;;;;;4978660;23;20488;-80
2023/07/14 06:08:35;;;;;;;1.50;0.90;;;20.30;95.50;;;;;;4974789;28;20474;-80
2023/07/14 06:11:05;;;;;;;1.50;1.00;;;20.50;95.70;;;;;;4976967;28;20457;-80
2023/07/14 06:13:36;;;;;;;1.50;0.90;;;20.80;95.20;;;;;;4973745;28;20488;-79
2023/07/14 06:16:04;;;;;;;1.50;1.00;;;21.00;92.60;;;;;;4979656;28;20458;-80
2023/07/14 06:18:35;;;;;;;1.50;0.90;;;21.10;92.90;;;;;;4965222;28;20502;-84
2023/07/14 06:21:02;;;;;;;1.50;1.10;;;21.20;91.90;;;;;;4966445;28;21023;-79
2023/07/14 06:23:32;;;;;;;1.50;1.00;;;21.30;90.90;;;;;;4968528;28;20569;-83
2023/07/14 06:25:59;;;;;;;1.47;0.90;;;21.50;92.50;;;;;;4965085;28;20476;-81
2023/07/14 06:28:27;;;;;;;1.50;0.90;;;21.80;91.10;;;;;;4971374;28;20490;-79
2023/07/14 06:30:59;;;;;;;1.50;0.90;;;22.00;89.20;;;;;;4969283;28;20575;-79
2023/07/14 06:33:27;;;;;;;1.50;0.90;;;22.10;89.60;;;;;;4966624;28;21156;-78
2023/07/14 06:35:55;;;;;;;1.50;0.90;;;22.20;88.00;;;;;;4960429;28;20738;-79
2023/07/14 06:38:24;;;;;;;1.50;0.90;;;22.20;87.90;;;;;;4966476;28;20487;-79
2023/07/14 06:40:56;;;;;;;1.50;0.90;;;22.20;88.90;;;;;;4975431;28;20470;-79
2023/07/14 06:43:24;;;;;;;1.50;0.90;;;22.30;87.70;;;;;;4972159;28;21031;-78
2023/07/14 06:45:52;;;;;;;1.50;0.90;;;22.40;87.40;;;;;;4971784;28;20472;-78
2023/07/14 06:48:21;;;;;;;1.50;0.90;;;22.50;88.30;;;;;;4968476;28;20477;-77
2023/07/14 06:50:49;;;;;;;1.47;0.83;;;22.60;87.40;;;;;;4969870;28;20493;-78
2023/07/14 06:53:16;;;;;;;1.50;0.93;;;22.80;87.60;;;;;;4963557;28;20494;-80
2023/07/14 06:55:44;;;;;;;1.50;0.90;;;22.90;88.20;;;;;;4964702;28;20581;-79
2023/07/14 06:58:11;;;;;;;1.50;0.90;;;23.10;87.20;;;;;;4965973;28;20474;-82
2023/07/14 07:00:39;;;;;;;1.50;0.90;;;23.30;85.30;;;;;;4965480;28;20478;-80
2023/07/14 07:03:07;;;;;;;1.50;0.90;;;23.40;84.80;;;;;;4960236;28;20539;-80
2023/07/14 07:05:38;;;;;;;1.47;0.90;;;23.60;84.30;;;;;;4960131;28;20485;-80
2023/07/14 07:08:08;;;;;;;1.50;0.90;;;23.70;83.30;;;;;;4961367;28;20458;-79
2023/07/14 07:10:36;;;;;;;1.50;0.90;;;23.90;84.80;;;;;;4961095;28;20466;-80
2023/07/14 07:13:03;;;;;;;1.50;0.90;;;24.10;83.90;;;;;;4960941;28;20470;-80
2023/07/14 07:15:30;;;;;;;1.47;0.80;;;24.30;83.80;;;;;;4963272;28;20518;-82
2023/07/14 07:17:57;;;;;;;1.50;0.90;;;24.50;82.40;;;;;;4956222;28;20479;-81
2023/07/14 07:20:24;;;;;;;1.50;0.90;;;24.70;81.00;;;;;;4961463;28;20462;-81
2023/07/14 07:22:53;;;;;;;1.50;0.90;;;24.70;80.10;;;;;;4959809;28;21019;-81
2023/07/14 07:25:20;;;;;;;1.47;0.83;;;24.80;79.90;;;;;;4962341;28;20564;-80
2023/07/14 07:27:48;;;;;;;1.50;0.87;;;24.90;81.00;;;;;;4960757;28;20469;-80
2023/07/14 07:30:15;;;;;;;1.50;0.90;;;25.10;80.00;;;;;;4962356;28;20467;-81
2023/07/14 07:32:42;;;;;;;1.47;0.80;;;25.40;79.90;;;;;;4965721;28;20472;-81
2023/07/14 07:35:10;;;;;;;1.50;0.87;;;25.60;78.20;;;;;;4966846;28;20490;-82
2023/07/14 07:37:37;;;;;;;1.50;0.80;;;25.80;78.90;;;;;;4961984;28;20540;-81
2023/07/14 07:40:08;;;;;;;1.47;0.80;;;25.80;78.80;;;;;;4960843;28;20511;-80
2023/07/14 07:42:35;;;;;;;1.50;0.83;;;25.90;77.60;;;;;;4961094;28;20470;-79
2023/07/14 07:45:03;;;;;;;1.47;0.90;;;26.00;77.60;;;;;;4957523;28;20477;-80
2023/07/14 07:47:30;;;;;;;1.43;0.80;;;26.10;77.10;;;;;;4961588;28;20884;-81
2023/07/14 07:50:08;;;;;;;1.47;0.80;;;26.10;76.60;;;;;;4963468;28;20470;-80
2023/07/14 07:52:35;;;;;;;1.60;1.10;;;26.00;75.50;;;;;;4959774;28;20470;-80
2023/07/14 07:55:03;;;;;;;1.47;0.83;;;25.70;76.70;;;;;;4960317;28;20495;-81
2023/07/14 07:57:33;;;;;;;1.50;0.90;;;25.60;77.90;;;;;;4960068;28;20469;-79
2023/07/14 08:00:00;;;;;;;1.50;0.80;;;25.70;79.50;;;;;;4957796;28;20493;-80
2023/07/14 08:02:28;;;;;;;1.43;0.90;;;25.80;78.30;;;;;;4960143;28;20478;-79
2023/07/14 08:04:55;;;;;;;1.50;0.80;;;25.90;77.00;;;;;;4961483;28;20552;-78
2023/07/14 08:07:22;;;;;;;1.50;0.83;;;25.80;76.70;;;;;;4959755;28;20465;-80
2023/07/14 08:09:50;;;;;;;1.47;0.87;;;25.70;77.00;;;;;;4957780;28;20854;-79
2023/07/14 08:12:17;;;;;;;1.50;1.00;;;25.70;76.90;;;;;;4960918;28;20470;-80
2023/07/14 08:14:53;;;;;;;1.47;0.90;;;25.60;76.90;;;;;;4959253;28;20524;-80
2023/07/14 08:17:23;;;;;;;1.47;0.90;;;25.60;77.40;;;;;;4959950;28;20485;-80
2023/07/14 08:19:51;;;;;;;1.50;0.83;;;25.70;76.90;;;;;;4958846;28;20489;-80
2023/07/14 08:22:18;;;;;;;1.47;0.80;;;25.80;77.40;;;;;;4961681;28;21034;-82
2023/07/14 08:24:45;;;;;;;1.47;0.80;;;25.90;77.40;;;;;;4964085;28;20513;-79
2023/07/14 08:27:14;;;;;;;1.47;0.80;;;26.10;76.40;;;;;;4962463;28;20469;-80
2023/07/14 08:29:41;;;;;;;1.47;0.80;;;26.30;76.90;;;;;;4958048;28;20879;-81
2023/07/14 08:32:12;;;;;;;1.50;1.00;;;26.60;76.20;;;;;;4964373;28;20806;-79
2023/07/14 08:34:40;;;;;;;1.50;0.80;;;26.70;75.10;;;;;;4960570;28;20584;-78
2023/07/14 08:37:07;;;;;;;1.43;0.80;;;26.80;75.40;;;;;;4954751;28;20485;-80
2023/07/14 08:39:34;;;;;;;1.50;0.80;;;27.00;74.30;;;;;;4959643;28;20572;-79
2023/07/14 08:42:08;;;;;;;1.50;0.80;;;27.30;74.10;;;;;;4964292;28;20498;-83
2023/07/14 08:44:59;;;;;;;1.47;0.80;;;27.50;73.80;;;;;;4958407;28;20538;-81
2023/07/14 08:47:32;;;;;;;1.43;0.80;;;27.70;72.30;;;;;;4959942;28;20476;-81
2023/07/14 08:50:03;;;;;;;1.50;0.90;;;27.80;73.30;;;;;;4960801;28;20681;-81
2023/07/14 08:52:33;;;;;;;1.50;0.90;;;28.10;72.70;;;;;;4959290;28;20580;-83
2023/07/14 08:55:06;;;;;;;1.50;0.80;;;28.30;71.40;;;;;;4958849;28;20504;-81
2023/07/14 08:57:44;;;;;;;1.50;0.90;;;28.40;72.00;;;;;;4953693;28;20511;-83
2023/07/14 09:00:17;;;;;;;1.40;0.90;;;28.40;69.80;;;;;;4956205;28;20490;-83
2023/07/14 09:02:55;;;;;;;1.43;0.80;;;28.40;70.60;;;;;;4956212;28;20899;-82
2023/07/14 09:05:29;;;;;;;1.47;0.80;;;28.40;70.70;;;;;;4956980;28;20999;-83
2023/07/14 09:07:57;;;;;;;1.47;0.80;;;28.60;69.90;;;;;;4960258;28;20484;-83
2023/07/14 09:10:37;;;;;;;1.47;0.80;;;28.40;70.70;;;;;;4960454;28;20462;-83
2023/07/14 09:13:11;;;;;;;1.50;0.80;;;28.40;70.80;;;;;;4960515;28;20469;-85
2023/07/14 09:15:40;;;;;;;1.43;0.80;;;28.50;70.80;;;;;;4962800;28;20492;-83
2023/07/14 09:18:22;;;;;;;1.47;0.80;;;28.60;69.90;;;;;;4954999;28;20995;-81
2023/07/14 09:21:03;;;;;;;1.47;0.80;;;28.50;70.70;;;;;;4960295;28;20471;-84
2023/07/14 09:23:49;;;;;;;1.40;0.90;;;28.50;70.60;;;;;;4959659;28;20462;-85
2023/07/14 09:26:25;;;;;;;1.43;0.80;;;28.60;70.10;;;;;;4958514;28;20466;-84
2023/07/14 09:28:53;;;;;;;1.40;0.80;;;28.60;69.50;;;;;;4963669;28;20465;-83
2023/07/14 09:31:37;;;;;;;1.43;0.80;;;28.60;69.30;;;;;;4966107;28;20472;-86
2023/07/14 09:34:17;;;;;;;1.47;0.80;;;28.60;68.80;;;;;;4965807;28;20485;-81
2023/07/14 09:36:45;;;;;;;1.40;0.80;;;28.70;69.30;;;;;;4959852;28;20845;-78
2023/07/14 09:39:21;;;;;;;1.40;0.80;;;28.70;69.70;;;;;;4957233;28;20496;-79
2023/07/14 09:41:52;;;;;;;2.80;2.60;;;28.80;68.80;;;;;;4957917;28;20870;-80
2023/07/14 09:44:20;;;;;;;1.47;0.80;;;28.80;69.20;;;;;;4958178;28;20489;-79
2023/07/14 09:46:48;;;;;;;1.40;0.80;;;28.90;68.50;;;;;;4961065;28;20495;-80
2023/07/14 09:49:25;;;;;;;1.40;0.80;;;29.00;68.50;;;;;;4960860;28;20516;-81
2023/07/14 09:52:14;;;;;;;1.47;0.80;;;28.90;66.70;;;;;;4956815;28;20464;-81
2023/07/14 09:54:54;;;;;;;1.47;0.80;;;28.90;67.70;;;;;;4961800;28;20482;-81
2023/07/14 09:57:29;;;;;;;1.43;0.90;;;29.00;67.50;;;;;;4960801;28;20528;-83
2023/07/14 10:00:00;;;;;;;1.50;0.80;;;29.10;67.00;;;;;;4960354;28;20523;-80
2023/07/14 10:02:29;;;;;;;1.43;0.90;;;29.10;67.70;;;;;;4961741;28;20480;-81
2023/07/14 10:05:26;;;;;;;1.40;0.80;;;29.10;67.20;;;;;;4961000;28;20573;-83
2023/07/14 10:07:54;;;;;;;1.47;0.80;;;29.20;67.20;;;;;;4961521;28;20543;-80
2023/07/14 10:10:42;;;;;;;1.43;0.80;;;29.20;67.10;;;;;;4961313;28;20480;-84
2023/07/14 10:13:21;;;;;;;1.40;0.87;;;29.30;68.30;;;;;;4958423;28;20473;-82
2023/07/14 10:15:55;;;;;;;1.50;0.80;;;29.40;66.50;;;;;;4956979;28;20484;-80
2023/07/14 10:18:23;;;;;;;1.40;0.80;;;29.40;66.10;;;;;;4961086;28;20682;-80
2023/07/14 10:21:00;;;;;;;1.40;0.80;;;29.30;66.10;;;;;;4965444;28;20469;-82
2023/07/14 10:23:28;;;;;;;1.50;0.90;;;29.10;66.20;;;;;;4964177;28;20968;-82
2023/07/14 10:32:10;;;;;;;1.40;0.80;;;28.80;67.30;;;;;;5191919;23;21232;-82
2023/07/14 10:34:50;;;;;;;1.43;0.80;;;29.00;67.20;;;;;;4941925;28;20493;-83
2023/07/14 10:37:24;;;;;;;1.50;0.80;;;29.40;66.50;;;;;;4944299;28;20498;-82
2023/07/14 10:40:00;;;;;;;1.50;0.87;;;29.60;66.30;;;;;;4945356;28;20502;-82
2023/07/14 10:42:34;;;;;;;1.47;0.80;;;29.90;65.50;;;;;;4946195;28;20458;-85
2023/07/14 10:45:34;;;;;;;1.47;0.90;;;30.20;65.50;;;;;;4944948;28;20486;-83
2023/07/14 10:48:06;;;;;;;1.50;0.80;;;30.50;64.60;;;;;;4944970;28;20473;-81
2023/07/14 10:50:57;;;;;;;1.50;0.83;;;30.20;64.80;;;;;;4947936;28;20474;-82
2023/07/14 10:54:07;;;;;;;1.50;0.80;;;30.00;64.60;;;;;;4946169;28;20971;-81
2023/07/14 11:06:09;;;;;;;1.50;0.90;;;31.00;62.70;;;;;;5801085;23;20495;-84
2023/07/14 11:08:43;;;;;;;1.50;1.03;;;31.00;63.60;;;;;;4946632;28;20480;-83
2023/07/14 11:11:19;;;;;;;1.47;0.80;;;30.90;63.80;;;;;;4949804;28;20473;-84
2023/07/14 11:14:12;;;;;;;1.47;0.80;;;30.90;63.10;;;;;;4950662;28;20546;-81
2023/07/14 11:17:00;;;;;;;1.47;0.80;;;31.00;62.60;;;;;;4949716;28;20485;-83
2023/07/14 11:20:08;;;;;;;1.47;0.80;;;30.80;63.70;;;;;;4956348;28;20465;-83
2023/07/14 11:23:03;;;;;;;1.43;0.80;;;30.60;64.50;;;;;;4948019;28;20466;-83
2023/07/14 11:25:40;;;;;;;1.47;0.80;;;30.80;64.30;;;;;;5068811;23;20585;-80
2023/07/14 11:28:30;;;;;;;1.43;0.80;;;31.10;63.30;;;;;;4944785;28;20491;-80
2023/07/14 11:31:06;;;;;;;1.50;0.80;;;31.50;62.70;;;;;;4935567;28;20497;-83
2023/07/14 11:33:40;;;;;;;1.43;0.80;;;31.50;62.50;;;;;;4937540;28;20487;-83
2023/07/14 11:36:12;;;;;;;1.50;0.80;;;31.60;63.60;;;;;;4930258;29;20987;-83
2023/07/14 11:41:38;;;;;;;1.40;0.80;;;32.00;61.00;;;;;;4930503;29;20607;-81
2023/07/14 11:44:11;;;;;;;1.47;0.80;;;32.20;60.40;;;;;;4916651;29;20630;-81
2023/07/14 11:46:43;;;;;;;1.40;0.80;;;32.20;59.80;;;;;;4921305;29;20257;-81
2023/07/14 11:49:28;;;;;;;1.43;0.80;;;32.20;60.30;;;;;;4927959;29;20299;-80
2023/07/14 11:52:14;;;;;;;1.40;0.83;;;32.50;59.00;;;;;;4923666;29;20216;-81
2023/07/14 11:54:59;;;;;;;1.40;0.90;;;32.60;58.00;;;;;;4925148;28;20596;-82
2023/07/14 11:57:31;;;;;;;1.50;1.00;;;32.80;58.20;;;;;;4916823;29;20291;-81
2023/07/14 12:00:00;;;;;;;1.43;0.80;;;33.20;58.20;;;;;;4922417;29;20234;-81
2023/07/14 12:02:39;;;;;;;1.43;0.80;;;33.00;57.00;;;;;;4924772;29;20322;-81
2023/07/14 12:05:32;;;;;;;1.40;0.80;;;32.90;57.40;;;;;;4922917;29;20238;-80
2023/07/14 12:08:24;;;;;;;1.43;0.90;;;33.00;57.00;;;;;;4922967;29;20199;-79
2023/07/14 12:10:52;;;;;;;1.40;0.80;;;33.40;56.90;;;;;;4924918;29;20214;-80
2023/07/14 12:13:34;;;;;;;1.40;0.80;;;33.60;58.00;;;;;;4923795;29;20298;-79
2023/07/14 12:16:24;;;;;;;1.43;0.80;;;33.40;56.00;;;;;;4925758;29;20298;-82
2023/07/14 12:19:22;;;;;;;1.43;0.80;;;33.00;55.80;;;;;;4925154;29;20427;-82
2023/07/14 12:22:01;;;;;;;1.47;0.83;;;32.90;56.70;;;;;;4924452;29;20239;-84
2023/07/14 12:24:33;;;;;;;1.47;0.80;;;32.70;56.60;;;;;;4926006;28;20722;-82
2023/07/14 12:27:24;;;;;;;1.40;0.80;;;32.80;58.00;;;;;;4922476;29;20231;-84
2023/07/14 12:30:00;;;;;;;1.47;0.80;;;32.80;55.80;;;;;;4920621;29;20215;-82
2023/07/14 12:32:41;;;;;;;1.43;0.80;;;32.60;56.50;;;;;;4925376;29;20231;-82
2023/07/14 12:35:17;;;;;;;1.43;0.80;;;32.50;56.10;;;;;;4930837;28;20653;-83
2023/07/14 12:37:44;;;;;;;1.50;1.00;;;32.30;57.90;;;;;;4922107;29;20227;-80
2023/07/14 12:40:15;;;;;;;1.40;0.80;;;32.30;56.10;;;;;;4924856;29;20215;-82
2023/07/14 12:42:44;;;;;;;1.43;0.80;;;32.40;56.00;;;;;;4925621;29;20226;-83
2023/07/14 12:45:18;;;;;;;1.40;0.80;;;32.40;55.90;;;;;;4926380;28;20231;-83
2023/07/14 12:47:52;;;;;;;1.40;0.80;;;32.40;56.10;;;;;;4926034;29;20301;-82
2023/07/14 12:50:22;;;;;;;2.13;1.93;;;32.30;55.50;;;;;;4924900;29;20207;-82
2023/07/14 12:52:49;;;;;;;1.40;0.90;;;32.10;55.80;;;;;;4920738;29;20218;-83
2023/07/14 12:55:19;;;;;;;1.90;1.57;;;32.10;56.20;;;;;;4920831;29;20238;-80
2023/07/14 12:57:48;;;;;;;1.40;0.80;;;32.10;57.30;;;;;;4925173;29;20227;-81
2023/07/14 13:00:22;;;;;;;1.40;0.80;;;32.40;57.40;;;;;;4923612;29;20477;-81
2023/07/14 13:02:58;;;;;;;1.40;0.80;;;32.70;56.90;;;;;;4923694;29;20210;-81
2023/07/14 13:05:33;;;;;;;1.40;0.80;;;32.80;54.40;;;;;;4924464;29;20499;-83
2023/07/14 13:08:20;;;;;;;1.40;0.90;;;32.40;54.30;;;;;;4921673;29;20229;-81
2023/07/14 13:10:55;;;;;;;1.40;0.80;;;32.30;55.30;;;;;;4923140;29;20486;-79
2023/07/14 13:13:26;;;;;;;1.40;0.80;;;32.30;55.60;;;;;;4921895;29;20211;-81
2023/07/14 13:16:03;;;;;;;1.40;0.80;;;32.30;55.80;;;;;;4923867;29;20203;-82
2023/07/14 13:18:36;;;;;;;1.40;0.80;;;32.40;55.30;;;;;;4923128;29;20250;-81
2023/07/14 13:21:25;;;;;;;1.40;0.80;;;32.50;56.50;;;;;;4923742;29;20218;-81
2023/07/14 13:24:48;;;;;;;1.40;0.80;;;32.80;56.00;;;;;;4926209;29;20227;-84
2023/07/14 13:27:20;;;;;;;1.40;0.80;;;33.10;54.00;;;;;;4905119;29;20204;-80
2023/07/14 13:30:01;;;;;;;1.40;0.80;;;33.30;52.80;;;;;;4926539;29;20214;-81
2023/07/14 13:33:11;;;;;;;1.40;0.80;;;33.30;53.90;;;;;;4927518;29;20298;-81
2023/07/14 13:35:53;;;;;;;1.50;1.00;;;33.20;53.40;;;;;;4928354;29;20578;-82
2023/07/14 13:38:25;;;;;;;1.40;0.80;;;33.20;53.10;;;;;;4929561;29;20231;-83
2023/07/14 13:40:54;;;;;;;1.40;0.80;;;33.10;54.80;;;;;;4928839;29;20206;-80
2023/07/14 13:43:22;;;;;;;2.43;1.93;;;33.30;53.20;;;;;;4925900;29;20218;-81
2023/07/14 13:46:24;;;;;;;1.40;0.80;;;33.40;54.10;;;;;;4932120;29;20289;-83
2023/07/14 13:48:52;;;;;;;1.40;0.80;;;33.20;52.20;;;;;;4927864;28;20207;-84
2023/07/14 13:51:27;;;;;;;1.40;0.80;;;33.10;53.90;;;;;;4930659;29;20220;-83
2023/07/14 13:56:57;;;;;;;1.40;0.80;;;33.00;53.20;;;;;;4922941;29;20202;-81
2023/07/14 14:00:00;;;;;;;1.40;0.83;;;32.90;54.60;;;;;;4929434;29;20282;-82